Nu Mine, Pennsylvania
Current Conditions -  °F | °C
As of 10:35 PM on Saturday 24 Jan 2015 (Local Time) from KIDI Reporting Station
Haze Haze  
Wind Chill: 20°   Ceiling: 600
Heat Index: 30°   Visibility: 2mi
Dew Point: 28°   Wind: 13mph
Humidity: 93%   Direction: 260°W
Pressure: 29.67"   Gusts: 18mph
Location:  40.8°N, 79.27°W
Report Text: KIDI 250335Z AUTO 26011G16KT 2SM BR OVC006 M01/M02 A2967 RMK A01
Loading
Personal Weather Stations






























Interactive Weather Map New forecast layout! Learn more

10-Day Weather Forecast

Advertisements
Track Severe Weather on mobile